Diretta Meteo Tokyo, Giapponedomenica 26 maggio ore 20:00

Mappa
Sereno 25 °C Sereno 24 Ore: T.min 20 T.max 31
Ponente Sud/Sud-Ovest Km/h 16.7 Punto di rugiada: 17 °C Umidità: 61% Visibilità: 10 Km
Il sole sorge alle: 04:27 Il sole tramonta alle: 18:47
26 Maggio 2019 20:00 tempo osservato: Sereno Sereno 25 61 1015 vento: Nord S/SO 16.7
26 Maggio 2019 19:30 tempo osservato: Sereno Sereno 25 61 1015 vento: Nord S/SO 20.3
26 Maggio 2019 19:00 tempo osservato: Sereno Sereno 26 57 1015 vento: Nord S/SO 22.2
26 Maggio 2019 18:30 tempo osservato: Sereno Sereno 26 54 1015 vento: Nord S/SO 18.5
26 Maggio 2019 18:00 tempo osservato: Sereno Sereno 27 54 1015 vento: Nord S/SO 24
26 Maggio 2019 17:30 tempo osservato: Sereno Sereno 28 45 1015 vento: Nord S/SO 24
26 Maggio 2019 17:00 tempo osservato: Sereno Sereno 29 42 1015 vento: Nord SO 22.2
26 Maggio 2019 16:30 tempo osservato: Sereno Sereno 30 40 1015 vento: Nord S/SO 22.2
26 Maggio 2019 16:00 tempo osservato: Sereno Sereno 29 48 1015 vento: Nord S 25.9
26 Maggio 2019 15:30 tempo osservato: Sereno Sereno 30 42 1015 vento: Nord S 24
26 Maggio 2019 15:00 tempo osservato: Sereno Sereno 30 40 1015 vento: Nord S 24
26 Maggio 2019 14:30 tempo osservato: Sereno Sereno 30 45 1015 vento: Nord S 24
26 Maggio 2019 14:00 tempo osservato: Sereno Sereno 31 43 1015 vento: Nord S 22.2
26 Maggio 2019 12:30 tempo osservato: Sereno Sereno 30 42 1016 vento: Nord S 13
26 Maggio 2019 11:30 tempo osservato: Sereno Sereno 27 57 1017 vento: Nord S/SE 9.3
26 Maggio 2019 11:00 tempo osservato: Sereno Sereno 27 57 1017 vento: Nord S/SE 11.1
26 Maggio 2019 10:30 tempo osservato: Sereno Sereno 26 61 1017 vento: Nord S/SE 13
26 Maggio 2019 10:00 tempo osservato: Sereno Sereno 26 65 1018 vento: Nord S/SE 9.3
26 Maggio 2019 09:30 tempo osservato: Sereno Sereno 25 65 1018 vento: Nord E/SE 9.3
26 Maggio 2019 09:00 tempo osservato: Sereno Sereno 25 65 1018 vento: Nord N 3.7
26 Maggio 2019 08:30 tempo osservato: Sereno Sereno 24 69 1018 vento: Nord N 5.5
26 Maggio 2019 08:00 tempo osservato: Sereno Sereno 23 73 1018 vento: Nord N 3.7
26 Maggio 2019 07:30 tempo osservato: Sereno Sereno 23 68 1018 vento: Nord N 3.7
26 Maggio 2019 07:00 tempo osservato: Sereno Sereno 23 68 1018 vento: Nord N 1.8
26 Maggio 2019 06:30 tempo osservato: Sereno Sereno 23 73 1018 vento: Nord N 3.7
26 Maggio 2019 06:00 tempo osservato: Sereno Sereno 22 78 1018 vento: Nord N 1.8
26 Maggio 2019 05:30 tempo osservato: Sereno Sereno 22 78 1017 vento: Nord N 5.5
26 Maggio 2019 05:00 tempo osservato: Sereno Sereno 21 77 1017 vento: Nord N 3.7
26 Maggio 2019 04:30 tempo osservato: Sereno Sereno 20 77 1017 vento: Nord S 7.4
26 Maggio 2019 04:00 tempo osservato: Sereno Sereno 21 77 1017 vento: Nord N 1.8
26 Maggio 2019 03:30 tempo osservato: Sereno Sereno 21 77 1017 vento: Nord O 7.4
26 Maggio 2019 03:00 tempo osservato: Sereno Sereno 22 73 1017 vento: Nord N 1.8
26 Maggio 2019 02:30 tempo osservato: Sereno Sereno 22 73 1017 vento: Nord S 9.3
26 Maggio 2019 02:00 tempo osservato: Sereno Sereno 22 73 1017 vento: Nord N 5.5
26 Maggio 2019 01:30 tempo osservato: Sereno Sereno 22 73 1017 vento: Nord N 5.5
26 Maggio 2019 01:00 tempo osservato: Sereno Sereno 22 78 1017 vento: Nord S/SO 11.1
26 Maggio 2019 00:30 tempo osservato: Sereno Sereno 22 78 1017 vento: Nord S/SO 13
26 Maggio 2019 00:00 tempo osservato: Sereno Sereno 22 78 1017 vento: Nord S 18.5
25 Maggio 2019 23:30 tempo osservato: Sereno Sereno 22 78 1017 vento: Nord S/SO 20.3
25 Maggio 2019 23:00 tempo osservato: Sereno Sereno 22 78 1017 vento: Nord S 20.3
25 Maggio 2019 22:30 tempo osservato: Sereno Sereno 23 68 1017 vento: Nord S 18.5
25 Maggio 2019 22:00 tempo osservato: Sereno Sereno 23 73 1017 vento: Nord S 20.3
25 Maggio 2019 21:30 tempo osservato: Sereno Sereno 23 73 1017 vento: Nord S 18.5
25 Maggio 2019 21:00 tempo osservato: Sereno Sereno 23 73 1017 vento: Nord S 20.3